CDT,Max TemperatureF,Mean TemperatureF,Min TemperatureF,Max Dew PointF,MeanDew PointF,Min DewpointF,Max Humidity, Mean Humidity, Min Humidity, Max Sea Level PressureIn, Mean Sea Level PressureIn, Min Sea Level PressureIn, Max VisibilityMiles, Mean VisibilityMiles, Min VisibilityMiles, Max Wind SpeedMPH, Mean Wind SpeedMPH, Max Gust SpeedMPH,PrecipitationIn, CloudCover, Events, WindDirDegrees
2014-3-1,49,36,24,38,32,23,100,80,56,30.23,30.13,30.01,10,10,7,13,5,20,0.00,8,,17
2014-3-2,24,14,4,25,11,-3,100,93,69,30.41,30.28,30.15,10,7,2,16,11,24,0.11,8,Rain-Snow,3
2014-3-3,25,13,1,6,-2,-8,69,53,33,30.52,30.43,30.32,10,10,10,16,9,22,0.00,3,Snow,19
2014-3-4,44,28,12,14,8,3,74,46,22,30.32,30.20,30.11,10,10,10,8,6,,0.00,0,,156
2014-3-5,52,37,22,22,11,-8,67,40,8,30.24,30.17,30.12,10,10,9,10,5,,0.00,2,,114
2014-3-6,51,38,26,26,22,18,98,57,27,30.27,30.16,30.06,10,10,10,8,5,,0.00,2,,70
2014-3-7,62,44,26,29,25,19,84,50,25,30.05,29.98,29.91,10,10,10,12,8,,0.00,1,,168
2014-3-8,42,38,33,36,35,29,100,97,58,30.33,30.18,29.98,10,4,2,12,7,18,0.10,6,Rain,334
2014-3-9,57,44,30,45,33,28,100,77,34,30.35,30.23,30.04,10,10,6,8,5,17,0.00,3,,207
2014-3-10,75,58,41,45,35,27,100,54,17,30.04,29.89,29.76,10,10,8,15,9,24,0.00,0,,227
2014-3-11,79,61,44,54,47,32,100,60,35,29.73,29.58,29.45,10,9,2,28,9,39,0.21,4,Rain,220
2014-3-12,48,40,32,43,31,21,100,78,35,30.17,29.96,29.61,10,10,3,24,16,37,0.10,5,Rain,324
2014-3-13,66,46,26,29,24,19,99,44,18,30.17,30.08,29.97,10,10,10,16,6,25,0.00,0,,217
2014-3-14,66,56,48,30,27,22,44,34,23,30.03,29.93,29.88,10,10,10,14,9,24,0.00,2,,242
2014-3-15,70,52,36,49,33,25,77,45,25,30.04,29.95,29.86,10,10,10,16,6,22,0.00,2,,154
2014-3-16,56,40,22,51,31,20,100,97,79,30.12,29.95,29.78,10,6,1,24,13,33,0.74,8,Rain-Snow,15
2014-3-17,47,30,14,28,20,14,99,71,34,30.09,29.91,29.77,10,10,10,9,5,,0.00,0,,115
2014-3-18,60,46,34,46,38,30,100,72,45,29.76,29.65,29.54,10,10,10,24,13,32,0.00,1,Rain,162
2014-3-19,52,46,37,45,33,27,87,65,39,30.17,29.98,29.68,10,10,10,16,9,28,0.00,3,,266
2014-3-20,66,48,30,29,26,22,88,45,20,30.17,30.07,29.95,10,10,10,13,5,22,0.00,0,,213
2014-3-21,73,60,47,43,29,20,51,34,19,30.02,29.89,29.78,10,10,10,18,8,25,0.00,1,,210
2014-3-22,52,42,32,32,28,18,100,62,34,30.32,30.19,30.03,10,10,10,15,9,21,0.00,3,,358
2014-3-23,44,36,27,19,12,8,61,40,24,30.47,30.39,30.32,10,10,10,16,10,23,0.00,2,,15
2014-3-24,44,34,24,36,24,10,100,70,31,30.34,30.21,30.14,10,7,2,9,5,,0.07,6,Rain-Snow,2
2014-3-25,41,34,26,32,21,5,100,68,23,30.34,30.25,30.17,10,9,4,20,8,28,0.00,4,,301
2014-3-26,53,36,20,40,24,9,99,61,25,30.31,30.12,29.94,10,10,10,20,9,31,0.02,4,Rain,157
2014-3-27,59,50,43,57,46,32,100,79,54,29.90,29.70,29.57,10,10,10,24,16,37,0.13,7,Rain-Thunderstorm,190
2014-3-28,52,43,34,44,38,34,100,85,60,30.11,30.01,29.81,10,10,10,9,6,16,0.01,3,,347
2014-3-29,55,44,35,39,34,31,100,77,41,30.28,30.20,30.09,10,10,7,15,8,24,0.00,3,,331
2014-3-30,69,48,29,41,33,26,100,61,21,30.28,30.15,30.00,10,10,10,15,7,22,0.00,0,,157
2014-3-31,64,56,48,48,41,33,80,59,36,29.99,29.89,29.76,10,10,10,25,13,39,0.10,4,Rain-Thunderstorm,171